Αναφορές METAR Αεροδρομίων

 

LGTS - THESSALONIKI - GREECE
Ενημερώθηκε: 24/11/2017 22:20
Αραιές Νεφώσεις
Αραιές Νεφώσεις
 Ανεμος από Α
Ανεμος: Α 9 km/h
Θερμοκρασία: 8°C
Wind Chill: 6°C
Σημείο Δρόσου: 5°C
Υγρασία: 82%
Βαρόμετρο: 1021 hPa
Clouds: Αραιές Νεφώσεις
Visibility: 10 km
Cloud details: Αραιές Νεφώσεις 305 m
2017/11/24 20:20 LGTS 242020Z 10005KT 9999 FEW010 08/05 Q1021 NOSIG
LGLR - LARTISA - GREECE
Ενημερώθηκε: 24/11/2017 21:50
Αίθριος
Αίθριος
 Ανεμος από calm
Ανεμος: Απνοια
Θερμοκρασία: 7°C
Σημείο Δρόσου: 6°C
Υγρασία: 93%
Βαρόμετρο: 1021 hPa
Περίληψη: Αίθριος
Visibility: greater than 10 km
2017/11/24 19:50 LGLR 241950Z 00000KT CAVOK 07/06 Q1021 RMK SCT180 BLU
 
LGKZ - KOZANI - GREECE
Ενημερώθηκε: 24/11/2017 13:50
NOT Current
Αίθριος
Αίθριος
 Ανεμος από ΝΑ
Ανεμος: ΝΑ 7 km/h
Θερμοκρασία: 13°C
Σημείο Δρόσου: 5°C
Υγρασία: 59%
Βαρόμετρο: 1020 hPa
Περίληψη: Αίθριος
Visibility: greater than 10 km
2017/11/24 11:50 LGKZ 241150Z 13004KT CAVOK 13/05 Q1020
LGKV - KAVALA - GREECE
Ενημερώθηκε: 24/11/2017 22:20
Αραιές Νεφώσεις
Αραιές Νεφώσεις
 Ανεμος από Β
Ανεμος: Β 7 km/h
Θερμοκρασία: 8°C
Wind Chill: 7°C
Σημείο Δρόσου: 6°C
Υγρασία: 87%
Βαρόμετρο: 1021 hPa
Clouds: Αραιές Νεφώσεις
Visibility: 10 km
Cloud details: Αραιές Νεφώσεις 457 m
2017/11/24 20:20 LGKV 242020Z 36004KT 9999 FEW015 08/06 Q1021
 
LGIO - IOANNINA - GREECE
Ενημερώθηκε: 24/11/2017 21:20
NOT Current
Αίθριος
Αίθριος
 Ανεμος από varies
Ανεμος: varies 0 km/h
Θερμοκρασία: 4°C
Σημείο Δρόσου: 3°C
Υγρασία: 93%
Βαρόμετρο: 1021 hPa
Περίληψη: Αίθριος
Visibility: greater than 10 km
2017/11/24 19:20 LGIO 241920Z /////KT CAVOK 04/03 Q1021
LGBL - BOLOS - GREECE
Ενημερώθηκε: 24/11/2017 21:50
Αραιές Νεφώσεις
Αραιές Νεφώσεις
 Ανεμος από ΔΝΔ
Ανεμος: ΔΝΔ 7 km/h
Θερμοκρασία: 9°C
Wind Chill: 8°C
Σημείο Δρόσου: 7°C
Υγρασία: 87%
Βαρόμετρο: 1021 hPa
Clouds: Αραιές Νεφώσεις
Visibility: 10 km
Cloud details: Αραιές Νεφώσεις 914 m
2017/11/24 19:50 LGBL 241950Z 25004KT 9999 FEW030 09/07 Q1021
 
LGMT - MITILINI - GREECE
Ενημερώθηκε: 24/11/2017 22:20
Αίθριος
Αίθριος
 Ανεμος από ΝΔ
Ανεμος: ΝΔ 9 km/h
Θερμοκρασία: 11°C
Σημείο Δρόσου: 5°C
Υγρασία: 67%
Βαρόμετρο: 1022 hPa
Περίληψη: Αίθριος
Visibility: greater than 10 km
2017/11/24 20:20 LGMT 242020Z 23005KT CAVOK 11/05 Q1022
LGAV - ATHENS - GREECE
Ενημερώθηκε: 24/11/2017 22:20
Αραιές Νεφώσεις
Αραιές Νεφώσεις
 Ανεμος από calm
Ανεμος: Απνοια
Θερμοκρασία: 11°C
Σημείο Δρόσου: 9°C
Υγρασία: 88%
Βαρόμετρο: 1021 hPa
Clouds: Αραιές Νεφώσεις
Visibility: 10 km
Cloud details: Αραιές Νεφώσεις 762 m
2017/11/24 20:20 LGAV 242020Z 00000KT 9999 FEW025 11/09 Q1021 NOSIG
 
LGRP - RODOS - GREECE
Ενημερώθηκε: 24/11/2017 22:20
Αραιές Νεφώσεις
Αραιές Νεφώσεις
 Ανεμος από calm
Ανεμος: Απνοια
Θερμοκρασία: 15°C
Σημείο Δρόσου: 9°C
Υγρασία: 68%
Βαρόμετρο: 1019 hPa
Clouds: Αραιές Νεφώσεις
Visibility: 10 km
Cloud details: Αραιές Νεφώσεις 610 m
2017/11/24 20:20 LGRP 242020Z 00000KT 9999 FEW020 15/09 Q1019 NOSIG
LGIR - HRAKLIO/KRITI - GREECE
Ενημερώθηκε: 24/11/2017 22:20
Αραιές Νεφώσεις
Αραιές Νεφώσεις
 Ανεμος από Ν
Ανεμος: Ν 9 km/h
Θερμοκρασία: 14°C
Σημείο Δρόσου: 11°C
Υγρασία: 82%
Βαρόμετρο: 1020 hPa
Clouds: Αραιές Νεφώσεις
Visibility: 10 km
Cloud details: Αραιές Νεφώσεις 610 m
2017/11/24 20:20 LGIR 242020Z 18005KT 9999 FEW020 14/11 Q1020 NOSIG
 
LGMK - MIKONOS - GREECE
Ενημερώθηκε: 24/11/2017 19:50
NOT Current
Αίθριος
Αίθριος
 Ανεμος από calm
Ανεμος: Απνοια
Θερμοκρασία: 14°C
Σημείο Δρόσου: 10°C
Υγρασία: 77%
Βαρόμετρο: 1020 hPa
Περίληψη: Αίθριος
Visibility: greater than 10 km
2017/11/24 17:50 LGMK 241750Z 00000KT CAVOK 14/10 Q1020
LGKR - KERKIRA - GREECE
Ενημερώθηκε: 24/11/2017 22:20
Αραιές Νεφώσεις
Αραιές Νεφώσεις
 Ανεμος από calm
Ανεμος: Απνοια
Θερμοκρασία: 10°C
Σημείο Δρόσου: 9°C
Υγρασία: 94%
Βαρόμετρο: 1021 hPa
Clouds: Αραιές Νεφώσεις
Visibility: 10 km
Cloud details: Αραιές Νεφώσεις 762 m
2017/11/24 20:20 LGKR 242020Z 00000KT 9999 FEW025 10/09 Q1021 NOSIG